createdAt,value
2018-09-10T00:01:42.934Z,9.70
2018-09-10T00:11:44.199Z,8.83
2018-09-10T00:21:45.463Z,9.30
2018-09-10T00:31:46.718Z,8.90
2018-09-10T00:41:48.112Z,9.37
2018-09-10T00:51:49.367Z,9.43
2018-09-10T01:01:50.624Z,9.50
2018-09-10T01:11:51.898Z,10.23
2018-09-10T01:21:53.169Z,9.43
2018-09-10T01:31:54.419Z,10.17
2018-09-10T01:41:55.671Z,9.83
2018-09-10T01:51:56.968Z,10.00
2018-09-10T02:01:58.232Z,10.17
2018-09-10T02:11:59.494Z,9.67
2018-09-10T02:22:00.759Z,9.57
2018-09-10T02:32:02.046Z,10.00
2018-09-10T02:42:04.135Z,11.27
2018-09-10T02:52:05.381Z,10.83
2018-09-10T03:02:06.614Z,9.77
2018-09-10T03:12:07.852Z,10.77
2018-09-10T03:22:09.862Z,10.60
2018-09-10T03:32:11.875Z,10.57
2018-09-10T03:42:13.158Z,10.83
2018-09-10T03:52:15.292Z,11.27
2018-09-10T04:02:17.334Z,10.50
2018-09-10T04:12:18.610Z,10.10
2018-09-10T04:22:19.874Z,10.60
2018-09-10T04:32:21.148Z,10.93
2018-09-10T04:42:22.485Z,11.60
2018-09-10T04:52:23.719Z,11.60
2018-09-10T05:02:25.745Z,12.20
2018-09-10T05:12:26.987Z,10.80
2018-09-10T05:22:29.033Z,11.73
2018-09-10T05:32:30.294Z,11.23
2018-09-10T05:42:31.617Z,10.83
2018-09-10T05:52:33.728Z,9.33
2018-09-10T06:02:35.007Z,9.60
2018-09-10T06:12:36.298Z,9.27
2018-09-10T06:22:38.333Z,9.23
2018-09-10T06:32:40.376Z,9.40
2018-09-10T06:42:41.634Z,7.87
2018-09-10T06:52:42.898Z,8.33
2018-09-10T07:02:44.132Z,7.80
2018-09-10T07:12:45.416Z,8.57
2018-09-10T07:22:47.431Z,7.70
2018-09-10T07:32:48.703Z,9.73
2018-09-10T07:42:50.877Z,7.93
2018-09-10T07:52:52.151Z,7.90
2018-09-10T08:02:53.478Z,7.07
2018-09-10T08:12:54.866Z,6.90
2018-09-10T08:22:56.135Z,7.50
2018-09-10T08:32:57.522Z,7.50
2018-09-10T08:42:58.865Z,6.70
2018-09-10T08:53:00.034Z,6.12
2018-09-10T09:13:09.211Z,5.53
2018-09-10T09:23:10.544Z,5.18
2018-09-10T09:33:13.885Z,5.20
2018-09-10T09:43:16.084Z,5.47
2018-09-10T09:53:18.222Z,5.00
2018-09-10T10:03:19.594Z,5.12
2018-09-10T10:13:20.946Z,4.65
2018-09-10T10:23:22.216Z,4.30
2018-09-10T10:33:24.235Z,4.32
2018-09-10T10:43:25.627Z,4.00
2018-09-10T10:53:26.870Z,4.35
2018-09-10T11:03:28.112Z,4.68
2018-09-10T11:13:30.142Z,3.90
2018-09-10T11:23:31.405Z,4.20
2018-09-10T11:33:32.777Z,4.07
2018-09-10T11:43:34.036Z,3.95
2018-09-10T11:53:35.295Z,4.47
2018-09-10T12:03:37.315Z,4.28
2018-09-10T12:13:38.630Z,4.00
2018-09-10T12:23:39.827Z,3.90
2018-09-10T12:33:41.075Z,3.83
2018-09-10T12:43:42.336Z,3.78
2018-09-10T12:53:43.569Z,3.87
2018-09-10T13:03:44.843Z,4.43
2018-09-10T13:13:46.108Z,4.22
2018-09-10T13:23:47.361Z,4.57
2018-09-10T13:33:48.823Z,3.80
2018-09-10T13:43:50.102Z,4.32
2018-09-10T13:53:51.471Z,5.20
2018-09-10T14:03:53.584Z,4.47
2018-09-10T14:24:02.811Z,4.20
2018-09-10T14:34:07.402Z,4.78
2018-09-10T14:44:09.423Z,4.57
2018-09-10T14:54:10.681Z,4.50
2018-09-10T15:04:11.987Z,4.78
2018-09-10T15:14:13.233Z,4.55
2018-09-10T15:34:21.449Z,4.30
2018-09-10T15:44:22.886Z,4.47
2018-09-10T15:54:24.220Z,4.70
2018-09-10T16:04:25.487Z,4.60
2018-09-10T16:14:26.758Z,4.70
2018-09-10T16:24:28.015Z,4.33
2018-09-10T16:34:29.267Z,4.37
2018-09-10T16:44:30.519Z,4.47
2018-09-10T16:54:31.859Z,5.00
2018-09-10T17:04:33.068Z,5.40
2018-09-10T17:14:34.327Z,5.40
2018-09-10T17:24:35.593Z,5.07
2018-09-10T17:34:37.074Z,5.30
2018-09-10T17:44:38.330Z,5.43
2018-09-10T17:54:39.602Z,5.77
2018-09-10T18:04:40.857Z,5.80
2018-09-10T18:14:44.311Z,6.13
2018-09-10T18:24:45.601Z,6.33
2018-09-10T18:34:48.116Z,6.03
2018-09-10T18:44:50.332Z,6.43
2018-09-10T18:54:51.576Z,5.70
2018-09-10T19:04:52.841Z,5.70
2018-09-10T19:14:54.966Z,5.67
2018-09-10T19:24:57.069Z,5.70
2018-09-10T19:34:59.098Z,6.10
2018-09-10T19:45:00.360Z,5.53
2018-09-10T19:55:01.635Z,7.07
2018-09-10T20:05:02.930Z,7.03
2018-09-10T20:15:04.191Z,6.70
2018-09-10T20:25:05.421Z,6.53
2018-09-10T20:35:09.725Z,7.20
2018-09-10T20:45:11.752Z,7.60
2018-09-10T20:55:13.767Z,7.37
2018-09-10T21:05:15.058Z,7.43
2018-09-10T21:15:16.340Z,7.20
2018-09-10T21:25:17.597Z,8.37
2018-09-10T21:35:18.853Z,7.73
2018-09-10T21:45:20.134Z,6.87
2018-09-10T21:55:21.398Z,7.60
2018-09-10T22:05:22.677Z,7.33
2018-09-10T22:15:23.918Z,7.63
2018-09-10T22:25:25.913Z,7.10
2018-09-10T22:35:27.162Z,7.73
2018-09-10T22:45:29.184Z,8.53
2018-09-10T22:55:30.430Z,7.73
2018-09-10T23:05:32.469Z,7.07
2018-09-10T23:15:33.757Z,7.80
2018-09-10T23:25:35.793Z,7.43
2018-09-10T23:35:37.050Z,7.60
2018-09-10T23:45:38.305Z,7.50
2018-09-10T23:55:39.574Z,7.57
